Latest Weather Observations for Murrurundi Gap

IDN60801

Issued at 7:03 am EDT Monday 18 November 2019 (issued every 10 minutes, with the page automatically refreshed every 10 minutes)

About weather observations | Map of weather stations | Latest weather observations for NSW | Other Formats
Station Details ID: 061392 Name: MURRURUNDI GAP AWS Lat: -31.74 Lon: 150.79 Height: 729.4 m
Data from the previous 72 hours. | See also: Recent months at Murrurundi Gap
Date/Time
EDT
Temp
°C
App
Temp
°C
Dew
Point
°C
Rel
Hum
%
Delta-T
°C
Wind Press
QNH
hPa
Press
MSL
hPa
Rain since
9am
mm
Dir  Spd
km/h
Gust
km/h
Spd
kts
Gust
kts
18/06:50am 11.2 9.1 11.2 100 0.0 SE 13 13 7 7 1019.6 1016.6 0.0
18/06:30am 10.6 8.3 10.6 100 0.0 ESE 13 15 7 8 1019.4 1016.4 0.0
18/06:00am 10.1 6.9 10.1 100 0.0 SE 17 19 9 10 1019.3 1016.3 0.0
18/05:30am 10.1 6.9 10.0 99 0.1 ESE 17 20 9 11 1018.9 1015.9 0.0
18/05:09am 10.3 6.8 10.1 99 0.1 SE 19 20 10 11 1018.8 1015.8 0.0
18/05:00am 10.5 7.0 10.3 99 0.1 SE 19 20 10 11 1018.8 1015.8 0.0
18/04:41am 10.6 7.5 10.4 99 0.1 ESE 17 19 9 10 1018.7 1015.6 0.0
18/04:30am 10.6 7.5 10.4 99 0.1 ESE 17 19 9 10 1018.8 1015.8 0.0
18/04:16am 10.5 7.8 10.3 99 0.1 SE 15 20 8 11 1018.9 1015.9 0.0
18/04:00am 10.7 7.7 10.5 99 0.1 SE 17 22 9 12 1018.5 1015.5 0.0
18/03:30am 11.0 7.4 10.5 97 0.3 SE 20 26 11 14 1018.5 1015.5 0.0
18/03:00am 11.7 7.8 10.8 94 0.5 SE 22 28 12 15 1018.5 1015.5 0.0
18/02:30am 12.2 7.9 10.8 91 0.8 SE 24 30 13 16 1018.7 1015.6 0.0
18/02:00am 12.3 7.7 10.9 91 0.8 SSE 26 32 14 17 1019.1 1016.1 0.0
18/01:30am 12.3 8.1 11.0 92 0.7 SE 24 32 13 17 1019.1 1016.1 0.0
18/01:00am 12.6 7.6 11.0 90 0.9 SSE 28 35 15 19 1019.1 1016.1 0.0
18/12:30am 12.8 8.2 10.9 88 1.0 SE 26 33 14 18 1019.5 1016.5 0.0
18/12:00am 13.2 8.2 10.9 86 1.3 SE 28 33 15 18 1019.8 1016.8 0.0
 
Date/Time
EDT
Temp
°C
App
Temp
°C
Dew
Point
°C
Rel
Hum
%
Delta-T
°C
Wind Press
QNH
hPa
Press
MSL
hPa
Rain since
9am
mm
Dir  Spd
km/h
Gust
km/h
Spd
kts
Gust
kts
17/11:30pm 13.4 7.1 10.9 85 1.4 SE 35 44 19 24 1019.4 1016.4 0.0
17/11:00pm 13.6 7.7 11.0 84 1.4 SE 33 44 18 24 1019.3 1016.3 0.0
17/10:30pm 13.8 7.5 11.1 84 1.5 SE 35 44 19 24 1019.0 1016.0 0.0
17/10:00pm 14.1 7.8 10.9 81 1.8 SE 35 46 19 25 1019.0 1016.0 0.0
17/09:30pm 14.5 8.4 10.5 77 2.2 SSE 33 43 18 23 1018.7 1015.6 0.0
17/09:00pm 14.9 8.4 10.3 74 2.5 SE 35 48 19 26 1018.0 1015.0 0.0
17/08:56pm 14.9 9.3 10.3 74 2.5 SE 30 48 16 26 1018.0 1015.0 0.0
17/08:30pm 15.2 9.1 10.4 73 2.6 SSE 33 46 18 25 1017.7 1014.7 0.0
17/08:17pm 15.4 9.3 10.4 72 2.7 SE 33 52 18 28 1017.8 1014.8 0.0
17/08:00pm 15.8 9.9 10.3 70 3.0 SSE 32 43 17 23 1017.1 1014.1 0.0
17/07:30pm 17.0 11.8 10.4 65 3.6 SSE 28 41 15 22 1016.8 1013.8 0.0
17/07:00pm 18.6 14.5 10.2 58 4.7 SE 22 35 12 19 1016.0 1012.9 0.0
17/06:30pm 20.8 16.9 9.4 48 6.3 SSE 20 32 11 17 1015.2 1012.2 0.0
17/06:00pm 24.7 17.6 -17.4 5 14.6 W 19 28 10 15 1014.1 1011.1 0.0
17/05:30pm 25.6 18.5 -16.8 5 15.0 SSW 19 30 10 16 1014.0 1011.0 0.0
17/05:00pm 24.8 17.7 -17.3 5 14.6 WSW 19 28 10 15 1013.9 1010.9 0.0
17/04:30pm 25.1 18.0 -13.1 7 14.3 WSW 20 35 11 19 1013.8 1010.7 0.0
17/04:00pm 26.1 19.2 -10.7 8 14.6 WSW 20 32 11 17 1013.9 1010.9 0.0
17/03:30pm 25.9 19.5 -6.8 11 13.9 WNW 19 30 10 16 1013.9 1010.9 0.0
17/03:00pm 25.6 19.0 -7.0 11 13.8 WSW 20 32 11 17 1014.1 1011.1 0.0
17/02:30pm 25.1 18.5 -7.4 11 13.5 W 20 35 11 19 1014.3 1011.2 0.0
17/02:00pm 25.7 19.4 -3.8 14 13.2 WSW 20 33 11 18 1014.3 1011.2 0.0
17/01:30pm 24.4 18.4 -1.4 18 12.0 WSW 20 41 11 22 1014.6 1011.5 0.0
17/01:00pm 24.4 18.8 1.3 22 11.2 W 20 35 11 19 1014.8 1011.7 0.0
17/12:30pm 22.8 17.3 1.8 25 10.2 W 20 32 11 17 1015.2 1012.2 0.0
17/12:00pm 22.2 14.4 1.8 26 9.9 W 32 43 17 23 1015.5 1012.5 0.0
17/11:30am 23.3 17.7 1.0 23 10.7 W 20 35 11 19 1015.6 1012.6 0.0
17/11:00am 22.1 16.9 0.0 23 10.3 W 17 30 9 16 1016.2 1013.1 0.0
17/10:30am 20.1 17.4 10.2 53 5.5 E 15 22 8 12 1016.4 1013.4 0.0
17/10:00am 18.6 15.9 11.7 64 3.9 ESE 17 24 9 13 1016.5 1013.5 0.0
17/09:30am 17.7 15.4 11.9 69 3.3 ESE 15 22 8 12 1016.3 1013.2 0.0
17/09:00am 16.0 12.9 11.6 75 2.5 ESE 19 24 10 13 1016.5 1013.5 0.0
17/08:30am 14.5 11.2 11.5 82 1.7 ESE 20 24 11 13 1016.3 1013.2 0.0
17/08:00am 12.7 9.3 11.4 92 0.7 SE 20 24 11 13 1016.0 1012.9 0.0
17/07:57am 13.0 9.7 11.7 92 0.7 SE 20 24 11 13 1016.0 1012.9 0.0
17/07:43am 13.6 10.6 12.5 93 0.6 ESE 20 24 11 13 1015.8 1012.7 0.0
17/07:30am 12.1 9.0 11.6 97 0.3 SE 19 20 10 11 1015.6 1012.6 0.0
17/07:24am 12.0 8.9 11.7 98 0.2 ESE 19 20 10 11 1015.6 1012.6 0.0
17/07:14am 11.8 8.7 11.5 98 0.2 ESE 19 20 10 11 1015.5 1012.5 0.0
17/07:00am 11.6 8.7 11.1 97 0.3 ESE 17 20 9 11 1015.4 1012.4 0.0
17/06:30am 11.9 9.1 11.3 96 0.3 SE 17 20 9 11 1015.2 1012.2 0.0
17/06:07am 12.4 9.9 12.2 99 0.1 ESE 17 20 9 11 1015.1 1012.1 0.0
17/06:00am 11.7 9.3 11.5 99 0.1 ESE 15 17 8 9 1015.1 1012.1 0.0
17/05:30am 11.5 9.1 11.5 100 0.0 ESE 15 15 8 8 1014.8 1011.7 0.0
17/05:00am 11.2 8.4 11.2 100 0.0 ESE 17 19 9 10 1014.6 1011.5 0.0
17/04:50am 11.2 8.0 11.2 100 0.0 ESE 19 20 10 11 1014.6 1011.5 0.0
17/04:31am 11.2 7.9 11.0 99 0.1 ESE 19 20 10 11 1014.6 1011.5 0.0
17/04:30am 11.2 8.3 11.0 99 0.1 ESE 17 20 9 11 1014.6 1011.5 0.0
17/04:00am 11.5 8.1 11.3 99 0.1 ESE 20 22 11 12 1014.8 1011.7 0.0
17/03:59am 11.4 8.0 11.2 99 0.1 ESE 20 22 11 12 1014.8 1011.7 0.0
17/03:54am 11.5 8.1 11.3 99 0.1 ESE 20 22 11 12 1014.8 1011.7 0.0
17/03:42am 11.6 8.2 11.4 99 0.1 ESE 20 20 11 11 1015.1 1012.1 0.0
17/03:30am 11.7 8.6 11.5 99 0.1 SE 19 20 10 11 1015.2 1012.2 0.0
17/03:00am 11.9 8.8 11.6 98 0.2 ESE 19 20 10 11 1015.2 1012.2 0.0
17/02:30am 12.0 8.8 11.4 96 0.3 SE 19 20 10 11 1015.4 1012.4 0.0
17/02:00am 12.3 9.1 11.2 93 0.6 SE 19 20 10 11 1015.8 1012.7 0.0
17/01:30am 12.8 9.6 11.2 90 0.9 SE 19 20 10 11 1016.0 1012.9 0.0
17/01:00am 13.3 10.5 11.2 87 1.2 SE 17 20 9 11 1016.1 1013.0 0.0
17/12:30am 14.2 10.8 11.2 82 1.7 SE 20 22 11 12 1016.4 1013.4 0.0
17/12:00am 14.2 10.9 11.0 81 1.8 SE 19 22 10 12 1016.6 1013.6 0.0
 
Date/Time
EDT
Temp
°C
App
Temp
°C
Dew
Point
°C
Rel
Hum
%
Delta-T
°C
Wind Press
QNH
hPa
Press
MSL
hPa
Rain since
9am
mm
Dir  Spd
km/h
Gust
km/h
Spd
kts
Gust
kts
16/11:30pm 15.3 12.2 10.3 72 2.7 SE 17 19 9 10 1016.4 1013.4 0.0
16/11:00pm 16.5 12.5 10.4 67 3.4 SSE 22 28 12 15 1015.9 1012.8 0.0
16/10:30pm 17.3 12.8 10.2 63 3.9 SSE 24 30 13 16 1015.9 1012.8 0.0
16/10:00pm 18.6 14.2 8.8 53 5.3 SSE 22 28 12 15 1015.5 1012.5 0.0
16/09:30pm 19.8 15.5 7.9 46 6.4 SE 20 26 11 14 1015.2 1012.2 0.0
16/09:00pm 20.6 16.3 5.4 37 7.8 SE 17 24 9 13 1015.0 1011.9 0.0
16/08:30pm 23.1 18.1 -4.1 16 11.9 SW 13 17 7 9 1014.7 1011.6 0.0
16/08:00pm 23.5 19.3 -3.7 16 12.0 WSW 9 13 5 7 1014.7 1011.6 0.0
16/07:30pm 24.6 18.5 -2.0 17 12.2 WNW 20 28 11 15 1014.3 1011.2 0.0
16/07:00pm 25.6 17.4 -1.2 17 12.6 NW 32 43 17 23 1013.7 1010.6 0.0
16/06:30pm 26.1 16.7 -2.5 15 13.2 NW 37 46 20 25 1013.0 1009.9 0.0
16/06:00pm 26.4 17.6 -4.2 13 13.7 NW 33 50 18 27 1012.7 1009.7 0.0
16/05:57pm 26.7 18.9 -4.0 13 13.8 NNW 28 50 15 27 1012.4 1009.3 0.0
16/05:30pm 26.9 19.9 -7.2 10 14.5 NW 22 32 12 17 1013.1 1010.0 0.0
16/05:08pm 27.0 20.4 -7.2 10 14.6 NW 20 43 11 23 1012.9 1009.8 0.0
16/05:00pm 26.9 18.6 -8.6 9 14.7 NW 28 44 15 24 1013.2 1010.1 0.0
16/04:54pm 27.1 17.9 -8.5 9 14.8 WNW 33 44 18 24 1012.9 1009.8 0.0
16/04:30pm 27.5 20.9 -9.7 8 15.2 WNW 19 33 10 18 1013.5 1010.4 0.0
16/04:00pm 27.4 18.7 -9.7 8 15.2 NW 30 39 16 21 1013.3 1010.2 0.0
16/03:30pm 27.0 18.5 -11.7 7 15.2 WNW 28 41 15 22 1013.3 1010.2 0.0
16/03:00pm 26.8 20.7 -7.3 10 14.5 NNW 17 32 9 17 1013.8 1010.7 0.0
16/02:47pm 26.8 18.8 -6.1 11 14.3 NW 28 46 15 25 1014.1 1011.1 0.0
16/02:37pm 26.8 19.8 -7.3 10 14.5 WNW 22 41 12 22 1014.0 1011.0 0.0
16/02:30pm 27.3 22.3 -4.6 12 14.3 NW 13 19 7 10 1014.5 1011.4 0.0
16/02:00pm 25.4 19.1 -6.0 12 13.5 W 19 33 10 18 1014.9 1011.8 0.0
16/01:34pm 25.7 17.7 -5.8 12 13.6 WNW 28 46 15 25 1015.1 1012.1 0.0
16/01:30pm 25.6 18.2 -7.0 11 13.8 WNW 24 46 13 25 1014.9 1011.8 0.0
16/01:00pm 25.4 19.1 -6.0 12 13.5 WNW 19 35 10 19 1015.6 1012.6 0.0
16/12:30pm 25.3 19.7 -3.2 15 12.9 NW 17 30 9 16 1016.0 1012.9 0.0
16/12:00pm 24.5 18.3 -4.7 14 12.7 W 19 32 10 17 1016.2 1013.1 0.0
16/11:30am 23.7 17.4 -3.6 16 12.1 NW 20 33 11 18 1016.4 1013.4 0.0
16/11:00am 24.1 18.0 -2.4 17 12.0 WNW 20 32 11 17 1016.5 1013.5 0.0
16/10:30am 23.0 17.6 -4.1 16 11.8 WNW 15 24 8 13 1016.8 1013.8 0.0
16/10:00am 22.5 17.4 -2.2 19 11.1 SE 15 20 8 11 1016.7 1013.7 0.0
16/09:30am 23.1 18.1 -1.1 20 11.2 E 15 20 8 11 1016.7 1013.7 0.0
16/09:00am 21.6 16.9 -1.6 21 10.5 ESE 13 19 7 10 1016.7 1013.7 0.0
16/08:30am 20.7 15.3 -1.1 23 9.9 ESE 17 22 9 12 1016.6 1013.6 0.0
16/08:00am 20.4 15.1 -0.3 25 9.5 ESE 17 20 9 11 1016.3 1013.2 0.0
16/07:30am 19.7 14.4 -0.9 25 9.3 ESE 17 20 9 11 1016.1 1013.0 0.0
16/07:00am 19.2 13.6 -0.2 27 8.8 SE 19 22 10 12 1015.8 1012.7 0.0
16/06:30am 18.2 12.5 -0.6 28 8.4 SE 19 24 10 13 1015.6 1012.6 0.0
16/06:00am 17.3 12.7 -1.4 28 8.2 SE 13 17 7 9 1015.1 1012.1 0.0
16/05:30am 18.0 13.0 -1.3 27 8.5 SE 15 17 8 9 1014.8 1011.7 0.0
16/05:00am 18.7 14.4 -1.7 25 9.0 ESE 11 13 6 7 1014.4 1011.3 0.0
16/04:30am 18.7 14.4 -1.7 25 9.0 ESE 11 13 6 7 1014.1 1011.1 0.0
16/04:00am 19.1 15.1 -1.9 24 9.2 ESE 9 11 5 6 1014.1 1011.1 0.0
16/03:30am 20.0 16.1 -1.7 23 9.6 SSE 9 13 5 7 1014.0 1011.0 0.0
16/03:00am 20.1 16.5 -2.3 22 9.8 S 7 9 4 5 1014.1 1011.1 0.0
16/02:30am 20.2 17.8 -2.8 21 10.0 CALM 0 0 0 0 1014.1 1011.1 0.0
16/02:00am 20.5 18.1 -3.2 20 10.3 CALM 0 0 0 0 1014.3 1011.2 0.0
16/01:30am 20.7 18.3 -3.0 20 10.3 CALM 0 0 0 0 1014.6 1011.5 0.0
16/01:00am 20.5 16.8 -3.2 20 10.3 NNW 7 9 4 5 1014.7 1011.6 0.0
16/12:30am 20.8 16.6 -3.6 19 10.5 NW 9 13 5 7 1014.7 1011.6 0.0
16/12:00am 20.4 16.2 -4.0 19 10.4 NW 9 11 5 6 1014.7 1011.6 0.0
 
Date/Time
EDT
Temp
°C
App
Temp
°C
Dew
Point
°C
Rel
Hum
%
Delta-T
°C
Wind Press
QNH
hPa
Press
MSL
hPa
Rain since
9am
mm
Dir  Spd
km/h
Gust
km/h
Spd
kts
Gust
kts
15/11:30pm 21.0 16.8 -4.2 18 10.8 NW 9 11 5 6 1014.7 1011.6 0.0
15/11:00pm 21.0 16.7 -4.9 17 10.9 NW 9 11 5 6 1014.7 1011.6 0.0
15/10:30pm 21.5 16.8 -5.3 16 11.2 NW 11 13 6 7 1014.7 1011.6 0.0
15/10:00pm 21.8 17.1 -5.1 16 11.4 NW 11 15 6 8 1014.6 1011.5 0.0
15/09:30pm 22.2 17.1 -5.6 15 11.7 NW 13 17 7 9 1014.4 1011.3 0.0
15/09:00pm 22.7 17.5 -6.1 14 12.0 NW 13 17 7 9 1013.9 1010.9 0.0
15/08:30pm 23.0 17.5 -5.0 15 12.0 WNW 15 22 8 12 1013.6 1010.5 0.0
15/08:00pm 24.0 17.2 -5.1 14 12.5 WNW 22 35 12 19 1013.2 1010.1 0.0
15/07:30pm 24.4 16.4 -5.8 13 12.9 NW 28 39 15 21 1012.6 1009.5 0.0
15/07:00pm 25.5 16.1 -6.0 12 13.5 NW 35 44 19 24 1012.1 1009.0 0.0
15/06:30pm 26.0 15.4 -6.7 11 13.9 NW 41 54 22 29 1011.4 1008.2 0.0
15/06:00pm 26.6 16.1 -6.2 11 14.2 WNW 41 56 22 30 1011.0 1007.9 0.0
15/05:30pm 26.9 16.3 -7.2 10 14.5 NW 41 52 22 28 1011.0 1007.9 0.0
15/05:00pm 26.8 16.7 -6.1 11 14.3 NW 39 46 21 25 1010.9 1007.8 0.0
15/04:30pm 27.2 16.6 -7.0 10 14.6 NW 41 54 22 29 1011.0 1007.9 0.0
15/04:00pm 26.8 16.2 -7.3 10 14.5 NW 41 61 22 33 1010.5 1007.4 0.0
15/03:30pm 27.4 17.3 -5.6 11 14.5 NW 39 57 21 31 1011.5 1008.4 0.0
15/03:26pm 26.8 16.8 -4.9 12 14.0 NW 39 57 21 31 1011.0 1007.9 0.0
15/03:00pm 26.8 16.9 -3.9 13 13.9 NW 39 56 21 30 1011.6 1008.5 0.0
15/02:30pm 26.8 16.4 -2.0 15 13.4 NW 43 57 23 31 1012.2 1009.1 0.0
15/02:14pm 26.4 16.6 -3.2 14 13.5 NW 39 57 21 31 1012.3 1009.2 0.0
15/02:00pm 26.2 16.9 -2.4 15 13.2 NW 37 52 20 28 1012.3 1009.2 0.0
15/01:30pm 25.1 16.5 -2.5 16 12.6 NW 33 48 18 26 1012.6 1009.5 0.0
15/01:05pm 25.1 15.9 -1.6 17 12.4 NW 37 56 20 30 1012.9 1009.8 0.0
15/01:00pm 24.3 14.4 -0.8 19 11.8 NW 41 57 22 31 1013.4 1010.3 0.0
15/12:58pm 24.8 14.5 -1.1 18 12.1 WNW 43 57 23 31 1013.3 1010.2 0.0
15/12:56pm 25.4 14.9 -1.4 17 12.5 WNW 44 57 24 31 1013.5 1010.4 0.0
15/12:34pm 24.6 15.8 -1.3 18 12.0 NW 35 59 19 32 1013.3 1010.2 0.0
15/12:30pm 24.2 14.7 -0.9 19 11.7 NW 39 56 21 30 1013.8 1010.7 0.0
15/12:01pm 23.9 15.3 0.3 21 11.2 NW 35 56 19 30 1013.9 1010.9 0.0
15/12:00pm 24.1 15.7 1.7 23 11.0 NW 35 50 19 27 1014.1 1011.1 0.0
15/11:30am 22.6 13.0 1.0 24 10.3 NW 41 54 22 29 1014.5 1011.4 0.0
15/11:00am 22.0 13.5 1.1 25 10.0 WNW 35 44 19 24 1015.2 1012.2 0.0
15/10:30am 20.4 12.0 1.3 28 9.0 WNW 35 44 19 24 1015.2 1012.2 0.0
15/10:00am 20.8 13.6 3.1 31 8.7 NW 30 39 16 21 1015.5 1012.5 0.0
15/09:30am 19.4 12.4 1.9 31 8.3 NW 28 37 15 20 1015.5 1012.5 0.0
15/09:00am 19.3 13.5 2.2 32 8.2 WNW 22 28 12 15 1015.8 1012.7 0.0
15/08:30am 17.9 12.0 1.4 33 7.7 NW 22 28 12 15 1016.0 1012.9 0.0
15/08:00am 17.3 12.3 1.3 34 7.4 NNW 17 20 9 11 1015.9 1012.8 0.0
15/07:30am 16.5 11.9 1.4 36 6.9 NW 15 19 8 10 1015.6 1012.6 0.0

Other formats

Comma delimited format used in spreadsheet applications
http://www.bom.gov.au/fwo/IDN60801/IDN60801.95747.axf

JavaScript Object Notation format (JSON) in row-major order
http://www.bom.gov.au/fwo/IDN60801/IDN60801.95747.json

Data quality

Most of these data are generated automatically and are frequently updated. Quality checks on data are not normally performed. It is possible for incorrect values to appear. Refer to information at About Latest Weather Observations and please check the disclaimer before using these data.